Kezdőlap
METAR-TAF:

METAR-TAF

Repülőterek :

Greater Kankakee Airport

Kankakee, Illinois, Amerikai Egyesült Államok

földrajzi szélesség: 41-04-17N, földrajzi hosszúság: 087-50-47W, magasság: 192 m

Jelenlegi meteorológiai megfigyelések

A jelentés 25 perccel ezelõtt készült, 09:55 UTC
Szélcsend
Hőmérséklet 17°C
Páratartalom 94%
Légköri nyomás 1020 hPa
Látótávolság: 16.1 km
Derült ég

METAR: KIKK 210955Z AUTO 00000KT 10SM CLR 17/16 A3012 RMK AO2 T01710158

Idő: 05:20 (10:20 UTC)


TAF: hiányzik

Meteorológiai megfigyelések és előrejelzések több, mint 4000 repülőtéren (METAR és TAF jelentéseket).

A térképen piros és sárga pontok jelzik az elérhető meteorológiai állomásokat.

Mozgassa az egeret a pont fölött, hogy megjelenjen az állomás neve.

Azután kattintson az időjárási megfigyelések és előrejelzések megtekintéséhez.

A térkép megváltoztatása: kattintson a fekete keresztel jelölt zöld gombra ráközelítéshez, a vonallal jelölt zöld gombra távolításhoz, vagy a zöld nyilakra a szomszédos térképek eléréséhez.


METAR-TAF: